ANZ699 NZAA-NZNV
Flight info
| Callsign | ANZ699 |
|---|---|
| Flight time | N/A |
| Altitude | 36000 |
| Route | KAPAI Y320 QN Q787 SUNGU |
| Aircraft | A320/M-SDE3FGHIRWY/LB1 |
Departure
| Time | N/A |
|---|---|
| Airport | Auckland International Airport (NZAA) |
Arrival
| Time | 2026-04-14 03:19 |
|---|---|
| Airport | Invercargill Airport (NZNV) |
| Time | Latitude | Longitude | Altitude | Speed | Heading |
|---|---|---|---|---|---|
| 2026-04-14 02:50 | -43.86629 | 169.23975 | 35569 ft | 433 kts | 220° |
| 2026-04-14 02:50 | -43.91479 | 169.19028 | 35578 ft | 433 kts | 220° |
| 2026-04-14 02:51 | -43.96342 | 169.14058 | 35563 ft | 434 kts | 220° |
| 2026-04-14 02:51 | -44.01205 | 169.09102 | 35562 ft | 434 kts | 220° |
| 2026-04-14 02:52 | -44.06072 | 169.04133 | 35548 ft | 434 kts | 220° |
| 2026-04-14 02:52 | -44.10895 | 168.99173 | 35552 ft | 434 kts | 220° |
| 2026-04-14 02:53 | -44.16034 | 168.94717 | 35540 ft | 441 kts | 206° |
| 2026-04-14 02:53 | -44.18973 | 168.93445 | 35536 ft | 447 kts | 195° |
| 2026-04-14 02:53 | -44.22055 | 168.92812 | 35535 ft | 449 kts | 191° |
| 2026-04-14 02:54 | -44.28258 | 168.91669 | 35518 ft | 450 kts | 192° |
| 2026-04-14 02:54 | -44.34463 | 168.90503 | 35513 ft | 450 kts | 192° |
| 2026-04-14 02:55 | -44.40680 | 168.89321 | 35505 ft | 451 kts | 192° |
| 2026-04-14 02:55 | -44.46914 | 168.88137 | 35505 ft | 453 kts | 191° |
| 2026-04-14 02:56 | -44.53120 | 168.86964 | 35494 ft | 453 kts | 191° |
| 2026-04-14 02:56 | -44.59381 | 168.85765 | 35485 ft | 454 kts | 192° |
| 2026-04-14 02:57 | -44.65600 | 168.84571 | 35072 ft | 446 kts | 191° |
| 2026-04-14 02:57 | -44.68667 | 168.83984 | 34473 ft | 447 kts | 191° |
| 2026-04-14 02:57 | -44.71778 | 168.83385 | 33631 ft | 456 kts | 191° |
| 2026-04-14 02:57 | -44.74930 | 168.82781 | 32987 ft | 456 kts | 191° |
| 2026-04-14 02:58 | -44.78055 | 168.82182 | 32444 ft | 452 kts | 191° |
| 2026-04-14 02:58 | -44.81165 | 168.81587 | 31966 ft | 448 kts | 191° |
| 2026-04-14 02:58 | -44.84238 | 168.80999 | 31506 ft | 443 kts | 191° |
| 2026-04-14 02:58 | -44.87276 | 168.80419 | 31030 ft | 439 kts | 191° |
| 2026-04-14 02:59 | -44.90282 | 168.79842 | 30576 ft | 434 kts | 191° |
| 2026-04-14 02:59 | -44.93261 | 168.79266 | 30122 ft | 430 kts | 191° |
| 2026-04-14 02:59 | -44.96205 | 168.78697 | 29630 ft | 424 kts | 191° |
| 2026-04-14 02:59 | -44.99115 | 168.78115 | 28867 ft | 418 kts | 193° |
| 2026-04-14 03:00 | -45.01943 | 168.77406 | 28151 ft | 410 kts | 195° |
| 2026-04-14 03:00 | -45.04715 | 168.76583 | 27501 ft | 403 kts | 196° |
| 2026-04-14 03:00 | -45.07425 | 168.75709 | 26857 ft | 395 kts | 197° |
| 2026-04-14 03:00 | -45.10081 | 168.74834 | 26272 ft | 389 kts | 197° |
| 2026-04-14 03:01 | -45.12661 | 168.73994 | 25655 ft | 382 kts | 198° |
| 2026-04-14 03:01 | -45.15239 | 168.73176 | 25041 ft | 376 kts | 198° |
| 2026-04-14 03:01 | -45.17777 | 168.72390 | 24472 ft | 371 kts | 198° |
| 2026-04-14 03:01 | -45.20289 | 168.71627 | 23904 ft | 365 kts | 198° |
| 2026-04-14 03:02 | -45.22751 | 168.70886 | 23359 ft | 360 kts | 198° |
| 2026-04-14 03:02 | -45.25178 | 168.70156 | 22737 ft | 355 kts | 198° |
| 2026-04-14 03:02 | -45.27582 | 168.69430 | 21976 ft | 352 kts | 198° |
| 2026-04-14 03:02 | -45.29967 | 168.68706 | 21244 ft | 349 kts | 198° |
| 2026-04-14 03:03 | -45.32333 | 168.67983 | 20560 ft | 349 kts | 197° |
| 2026-04-14 03:03 | -45.34699 | 168.67259 | 20036 ft | 347 kts | 197° |
| 2026-04-14 03:03 | -45.37058 | 168.66538 | 19519 ft | 346 kts | 197° |
| 2026-04-14 03:03 | -45.39411 | 168.65821 | 19023 ft | 345 kts | 197° |
| 2026-04-14 03:04 | -45.41756 | 168.65106 | 18470 ft | 346 kts | 195° |
| 2026-04-14 03:04 | -45.44107 | 168.64388 | 18017 ft | 344 kts | 195° |
| 2026-04-14 03:04 | -45.46437 | 168.63674 | 17586 ft | 341 kts | 195° |
| 2026-04-14 03:04 | -45.48720 | 168.62939 | 17149 ft | 338 kts | 196° |
| 2026-04-14 03:05 | -45.50992 | 168.62178 | 16733 ft | 334 kts | 197° |
| 2026-04-14 03:05 | -45.53245 | 168.61411 | 16319 ft | 331 kts | 197° |
| 2026-04-14 03:05 | -45.55473 | 168.60648 | 15921 ft | 328 kts | 197° |
| 2026-04-14 03:05 | -45.57684 | 168.59897 | 15524 ft | 325 kts | 197° |
| 2026-04-14 03:06 | -45.59875 | 168.59156 | 15142 ft | 322 kts | 197° |
| 2026-04-14 03:06 | -45.62054 | 168.58423 | 14745 ft | 321 kts | 196° |
| 2026-04-14 03:06 | -45.64224 | 168.57695 | 14353 ft | 319 kts | 197° |
| 2026-04-14 03:06 | -45.66381 | 168.56968 | 13962 ft | 318 kts | 196° |
| 2026-04-14 03:07 | -45.68538 | 168.56237 | 13590 ft | 317 kts | 197° |
| 2026-04-14 03:07 | -45.70682 | 168.55510 | 13186 ft | 317 kts | 197° |
| 2026-04-14 03:07 | -45.72814 | 168.54787 | 12960 ft | 309 kts | 196° |
| 2026-04-14 03:07 | -45.74864 | 168.54096 | 12877 ft | 298 kts | 196° |
| 2026-04-14 03:08 | -45.76847 | 168.53428 | 12601 ft | 294 kts | 196° |
| 2026-04-14 03:08 | -45.78837 | 168.52754 | 12248 ft | 293 kts | 197° |
| 2026-04-14 03:08 | -45.80822 | 168.52081 | 11884 ft | 293 kts | 197° |
| 2026-04-14 03:08 | -45.82803 | 168.51408 | 11524 ft | 292 kts | 196° |
| 2026-04-14 03:09 | -45.84783 | 168.50739 | 11163 ft | 292 kts | 196° |
| 2026-04-14 03:09 | -45.86763 | 168.50070 | 10796 ft | 292 kts | 196° |
| 2026-04-14 03:09 | -45.88740 | 168.49398 | 10434 ft | 292 kts | 197° |
| 2026-04-14 03:09 | -45.90711 | 168.48729 | 10072 ft | 292 kts | 197° |
| 2026-04-14 03:10 | -45.92695 | 168.48053 | 9710 ft | 291 kts | 196° |
| 2026-04-14 03:10 | -45.94665 | 168.47382 | 9342 ft | 291 kts | 197° |
| 2026-04-14 03:10 | -45.96636 | 168.46710 | 8990 ft | 290 kts | 197° |
| 2026-04-14 03:10 | -45.98596 | 168.46038 | 8650 ft | 287 kts | 196° |
| 2026-04-14 03:11 | -46.00513 | 168.45378 | 8259 ft | 287 kts | 195° |
| 2026-04-14 03:11 | -46.02443 | 168.44716 | 7907 ft | 286 kts | 195° |
| 2026-04-14 03:11 | -46.04346 | 168.44064 | 7534 ft | 276 kts | 196° |
| 2026-04-14 03:11 | -46.06201 | 168.43431 | 7184 ft | 273 kts | 195° |
| 2026-04-14 03:12 | -46.08057 | 168.42861 | 6837 ft | 274 kts | 189° |
| 2026-04-14 03:12 | -46.09969 | 168.42888 | 6493 ft | 277 kts | 174° |
| 2026-04-14 03:12 | -46.11866 | 168.43406 | 6138 ft | 278 kts | 172° |
| 2026-04-14 03:12 | -46.13766 | 168.43935 | 5785 ft | 278 kts | 171° |
| 2026-04-14 03:13 | -46.15669 | 168.44461 | 5419 ft | 278 kts | 172° |
| 2026-04-14 03:13 | -46.17562 | 168.44983 | 5067 ft | 277 kts | 171° |
| 2026-04-14 03:13 | -46.19452 | 168.45498 | 4721 ft | 276 kts | 172° |
| 2026-04-14 03:13 | -46.21333 | 168.46006 | 4418 ft | 274 kts | 171° |
| 2026-04-14 03:14 | -46.23182 | 168.46511 | 4029 ft | 266 kts | 172° |
| 2026-04-14 03:14 | -46.24975 | 168.47003 | 3673 ft | 256 kts | 171° |
| 2026-04-14 03:14 | -46.26708 | 168.47480 | 3344 ft | 254 kts | 171° |
| 2026-04-14 03:14 | -46.28440 | 168.47957 | 3082 ft | 251 kts | 172° |
| 2026-04-14 03:15 | -46.30109 | 168.48416 | 3004 ft | 237 kts | 171° |
| 2026-04-14 03:15 | -46.31698 | 168.48854 | 2913 ft | 227 kts | 172° |
| 2026-04-14 03:15 | -46.33216 | 168.49272 | 2814 ft | 217 kts | 171° |
| 2026-04-14 03:15 | -46.34674 | 168.49343 | 2716 ft | 203 kts | 199° |
| 2026-04-14 03:16 | -46.35817 | 168.48378 | 2564 ft | 191 kts | 230° |
| 2026-04-14 03:16 | -46.36485 | 168.46705 | 2259 ft | 191 kts | 246° |
| 2026-04-14 03:16 | -46.37033 | 168.44997 | 1987 ft | 180 kts | 245° |
| 2026-04-14 03:16 | -46.37537 | 168.43445 | 1728 ft | 167 kts | 245° |
| 2026-04-14 03:17 | -46.38014 | 168.41983 | 1495 ft | 153 kts | 245° |
| 2026-04-14 03:17 | -46.38865 | 168.39379 | 1139 ft | 141 kts | 245° |
| 2026-04-14 03:17 | -46.39281 | 168.38101 | 931 ft | 140 kts | 244° |
| 2026-04-14 03:18 | -46.39697 | 168.36822 | 722 ft | 140 kts | 245° |
| 2026-04-14 03:18 | -46.40116 | 168.35534 | 519 ft | 141 kts | 245° |
| 2026-04-14 03:18 | -46.40526 | 168.34249 | 321 ft | 142 kts | 245° |
| 2026-04-14 03:18 | -46.40951 | 168.32972 | 116 ft | 141 kts | 244° |
| 2026-04-14 03:19 | -46.41354 | 168.31719 | 17 ft | 126 kts | 245° |
| 2026-04-14 03:19 | -46.41648 | 168.30815 | 11 ft | 77 kts | 245° |
| 2026-04-14 03:19 | -46.41802 | 168.30336 | 12 ft | 27 kts | 245° |
| 2026-04-14 03:19 | -46.41850 | 168.30186 | 13 ft | 12 kts | 249° |
| 2026-04-14 03:20 | -46.41860 | 168.30127 | 14 ft | 1 kts | 225° |
| 2026-04-14 03:20 | -46.41865 | 168.30132 | 12 ft | 1 kts | 156° |
| 2026-04-14 03:20 | -46.41859 | 168.30193 | 15 ft | 13 kts | 68° |
| 2026-04-14 03:20 | -46.41808 | 168.30350 | 12 ft | 21 kts | 66° |
| 2026-04-14 03:21 | -46.41743 | 168.30552 | 14 ft | 24 kts | 64° |
| 2026-04-14 03:21 | -46.41666 | 168.30785 | 11 ft | 27 kts | 64° |
| 2026-04-14 03:21 | -46.41582 | 168.31041 | 14 ft | 29 kts | 64° |
| 2026-04-14 03:21 | -46.41492 | 168.31315 | 14 ft | 31 kts | 65° |
| 2026-04-14 03:22 | -46.41412 | 168.31563 | 15 ft | 23 kts | 65° |
| 2026-04-14 03:22 | -46.41354 | 168.31741 | 14 ft | 17 kts | 64° |
| 2026-04-14 03:22 | -46.41315 | 168.31858 | 14 ft | 9 kts | 64° |
| 2026-04-14 03:22 | -46.41291 | 168.31942 | 14 ft | 10 kts | 80° |
| 2026-04-14 03:23 | -46.41338 | 168.32015 | 13 ft | 12 kts | 155° |
| 2026-04-14 03:23 | -46.41425 | 168.32074 | 15 ft | 13 kts | 155° |
| 2026-04-14 03:23 | -46.41437 | 168.32082 | 14 ft | 0 kts | 155° |
| 2026-04-14 03:24 | -46.41447 | 168.32088 | 14 ft | 3 kts | 160° |
| 2026-04-14 03:24 | -46.41476 | 168.32098 | 14 ft | 6 kts | 170° |
| 2026-04-14 03:24 | -46.41521 | 168.32096 | 13 ft | 6 kts | 179° |
| 2026-04-14 03:24 | -46.41550 | 168.32105 | 14 ft | 0 kts | 167° |